Main page
METAR-TAF:

METAR-TAF

Airports :

Philip S. W. Goldson International Airport

Belize City, Belize

latitude: 17-32N, longitude: 088-18W, elevation: 5 m

Current weather observation

The report was made 59 minutes ago, at 21:00 UTC
Wind 7 kt from the East/Southeast
Temperature 29°C
Humidity 79%
Pressure 1012 hPa
Visibility 10 km or more
Broken clouds at a height of 2100 ft
Broken clouds at a height of 4500 ft

METAR: MZBZ 172100Z 12007KT 9999 BKN021 BKN045 29/25 A2990 Q1012 NOSIG RMK HZY

Time: 15:59 (21:59 UTC)

Forecast

The report was made 6 hours and 59 minutes ago, at 15:00 UTC
Forecast valid from 17 at 18 UTC to 18 at 18 UTC
Wind 8 kt from the Southeast
Visibility 10 km or more
Scattered clouds at a height of 2200 ft
Scattered clouds at a height of 4500 ft

TAF: MZBZ 171500Z 1718/1818 13008KT 9999 SCT022 SCT045

Weather observations and forecasts of more than 4000 airports (METAR and TAF reports).

The available stations are represented by yellow and red dots on the map.

Hover mouse over dot to see the name of the station.

Then click to see weather observations and forecasts.

To change the map : click on the green buttons with a black cross to zoom in, on the green button with a dash to zoom out, or on the green arrows for adjacent maps.


METAR-TAF: